createdAt,value
2023-05-17T00:01:58.657Z,80.70
2023-05-17T00:04:25.759Z,80.70
2023-05-17T00:06:59.551Z,80.70
2023-05-17T00:09:26.514Z,80.70
2023-05-17T00:11:57.800Z,81.00
2023-05-17T00:14:27.245Z,80.90
2023-05-17T00:16:54.325Z,81.20
2023-05-17T00:19:21.429Z,81.40
2023-05-17T00:21:50.964Z,81.60
2023-05-17T00:24:17.954Z,80.90
2023-05-17T00:26:44.903Z,81.10
2023-05-17T00:29:18.465Z,81.80
2023-05-17T00:31:47.944Z,81.70
2023-05-17T00:34:17.282Z,81.80
2023-05-17T00:36:47.088Z,82.00
2023-05-17T00:39:14.028Z,82.00
2023-05-17T00:41:45.388Z,82.10
2023-05-17T00:44:14.564Z,82.50
2023-05-17T00:46:42.713Z,82.60
2023-05-17T00:49:12.284Z,82.70
2023-05-17T00:51:46.875Z,82.60
2023-05-17T00:54:20.856Z,82.50
2023-05-17T00:56:48.551Z,82.50
2023-05-17T00:59:15.541Z,82.30
2023-05-17T01:01:45.114Z,82.40
2023-05-17T01:04:15.296Z,82.40
2023-05-17T01:06:49.494Z,82.30
2023-05-17T01:09:16.752Z,82.10
2023-05-17T01:12:08.159Z,82.30
2023-05-17T01:15:32.503Z,82.10
2023-05-17T01:18:18.070Z,82.40
2023-05-17T01:20:50.070Z,82.70
2023-05-17T01:23:46.776Z,82.40
2023-05-17T01:26:26.756Z,82.50
2023-05-17T01:28:54.492Z,82.60
2023-05-17T01:31:24.353Z,82.40
2023-05-17T01:33:58.180Z,82.40
2023-05-17T01:36:31.060Z,82.40
2023-05-17T01:39:04.465Z,82.50
2023-05-17T01:41:36.386Z,82.40
2023-05-17T01:44:27.146Z,82.40
2023-05-17T01:47:02.522Z,82.60
2023-05-17T01:49:39.670Z,82.80
2023-05-17T01:52:34.354Z,82.90
2023-05-17T01:55:16.252Z,82.70
2023-05-17T01:57:43.547Z,82.70
2023-05-17T02:00:10.765Z,82.80
2023-05-17T02:02:46.517Z,82.70
2023-05-17T02:05:13.791Z,82.80
2023-05-17T02:07:45.844Z,82.80
2023-05-17T02:10:13.096Z,82.90
2023-05-17T02:12:42.977Z,82.90
2023-05-17T02:15:13.900Z,82.70
2023-05-17T02:17:43.258Z,83.00
2023-05-17T02:20:11.756Z,83.10
2023-05-17T02:22:39.096Z,83.20
2023-05-17T02:25:08.944Z,83.50
2023-05-17T02:27:36.384Z,83.50
2023-05-17T02:30:04.485Z,83.50
2023-05-17T02:32:36.360Z,83.40
2023-05-17T02:35:03.537Z,83.60
2023-05-17T02:37:35.302Z,83.60
2023-05-17T02:40:02.315Z,83.90
2023-05-17T02:42:29.295Z,83.70
2023-05-17T02:44:58.418Z,83.60
2023-05-17T02:47:25.559Z,83.60
2023-05-17T02:49:57.207Z,83.70
2023-05-17T02:52:24.778Z,83.70
2023-05-17T02:54:51.972Z,83.90
2023-05-17T02:57:19.261Z,84.00
2023-05-17T02:59:46.554Z,84.00
2023-05-17T03:02:16.016Z,83.70
2023-05-17T03:04:43.051Z,83.60
2023-05-17T03:07:14.770Z,83.70
2023-05-17T03:09:44.289Z,83.60
2023-05-17T03:12:11.489Z,83.60
2023-05-17T03:14:40.792Z,83.80
2023-05-17T03:17:09.597Z,83.80
2023-05-17T03:19:41.362Z,83.10
2023-05-17T03:22:08.438Z,83.70
2023-05-17T03:24:35.593Z,84.00
2023-05-17T03:27:05.052Z,84.00
2023-05-17T03:29:32.674Z,84.00
2023-05-17T03:32:00.037Z,83.90
2023-05-17T03:34:30.935Z,84.00
2023-05-17T03:37:05.032Z,84.00
2023-05-17T03:39:32.119Z,84.00
2023-05-17T03:42:02.384Z,84.00
2023-05-17T03:44:33.004Z,84.10
2023-05-17T03:47:00.025Z,84.30
2023-05-17T03:49:29.379Z,84.40
2023-05-17T03:51:56.429Z,84.50
2023-05-17T03:54:28.332Z,84.30
2023-05-17T03:56:57.491Z,84.30
2023-05-17T03:59:27.743Z,84.00
2023-05-17T04:01:59.384Z,84.30
2023-05-17T04:04:26.858Z,84.20
2023-05-17T04:06:54.359Z,84.40
2023-05-17T04:09:21.353Z,84.40
2023-05-17T04:11:51.036Z,84.40
2023-05-17T04:14:19.065Z,84.00
2023-05-17T04:16:47.051Z,84.30
2023-05-17T04:19:14.624Z,84.60
2023-05-17T04:21:44.793Z,84.30
2023-05-17T04:24:11.839Z,84.30
2023-05-17T04:26:41.045Z,84.40
2023-05-17T04:29:11.903Z,84.60
2023-05-17T04:31:41.093Z,84.70
2023-05-17T04:34:10.565Z,84.80
2023-05-17T04:36:37.967Z,85.00
2023-05-17T04:39:05.499Z,84.80
2023-05-17T04:41:34.765Z,85.00
2023-05-17T04:44:04.538Z,85.00
2023-05-17T04:46:35.562Z,85.10
2023-05-17T04:49:05.414Z,85.10
2023-05-17T04:51:32.575Z,84.70
2023-05-17T04:54:03.368Z,84.80
2023-05-17T04:56:33.710Z,84.80
2023-05-17T04:59:00.809Z,84.80
2023-05-17T05:01:30.992Z,84.70
2023-05-17T05:03:59.705Z,84.70
2023-05-17T05:06:31.614Z,85.10
2023-05-17T05:09:00.919Z,85.30
2023-05-17T05:11:31.995Z,85.10
2023-05-17T05:13:59.896Z,85.00
2023-05-17T05:16:29.601Z,84.70
2023-05-17T05:18:56.771Z,84.40
2023-05-17T05:21:23.975Z,84.40
2023-05-17T05:23:51.158Z,84.40
2023-05-17T05:26:18.162Z,84.40
2023-05-17T05:28:45.498Z,84.30
2023-05-17T05:31:12.563Z,84.30
2023-05-17T05:33:45.833Z,84.30
2023-05-17T05:36:13.063Z,84.00
2023-05-17T05:38:40.051Z,83.50
2023-05-17T05:41:11.344Z,80.50
2023-05-17T05:43:38.452Z,78.20
2023-05-17T05:46:10.163Z,75.20
2023-05-17T05:48:41.881Z,74.30
2023-05-17T05:51:09.016Z,72.50
2023-05-17T05:53:43.676Z,70.00
2023-05-17T05:56:13.186Z,69.70
2023-05-17T05:58:42.496Z,67.20
2023-05-17T06:01:14.548Z,69.70
2023-05-17T06:03:41.537Z,68.30
2023-05-17T06:06:11.189Z,64.80
2023-05-17T06:08:38.216Z,65.50
2023-05-17T06:11:05.293Z,65.40
2023-05-17T06:13:32.265Z,64.20
2023-05-17T06:15:59.755Z,63.20
2023-05-17T06:18:26.868Z,60.40
2023-05-17T06:20:56.895Z,59.60
2023-05-17T06:23:24.016Z,56.80
2023-05-17T06:25:50.962Z,58.90
2023-05-17T06:28:22.423Z,55.80
2023-05-17T06:30:51.954Z,57.10
2023-05-17T06:33:19.140Z,57.00
2023-05-17T06:35:57.128Z,54.60
2023-05-17T06:38:25.075Z,54.00
2023-05-17T06:40:53.985Z,52.40
2023-05-17T06:43:23.411Z,52.30
2023-05-17T06:45:53.199Z,52.20
2023-05-17T06:48:20.306Z,51.00
2023-05-17T06:50:50.199Z,50.70
2023-05-17T06:53:20.060Z,50.90
2023-05-17T06:55:47.035Z,50.50
2023-05-17T06:58:18.363Z,49.60
2023-05-17T07:00:47.772Z,49.20
2023-05-17T07:03:17.040Z,49.40
2023-05-17T07:05:47.190Z,50.00
2023-05-17T07:08:16.534Z,49.30
2023-05-17T07:10:43.729Z,49.40
2023-05-17T07:13:15.902Z,47.60
2023-05-17T07:15:43.091Z,46.60
2023-05-17T07:18:15.121Z,46.40
2023-05-17T07:20:44.757Z,47.30
2023-05-17T07:23:11.742Z,45.60
2023-05-17T07:25:40.494Z,46.80
2023-05-17T07:28:07.862Z,47.00
2023-05-17T07:30:34.871Z,48.00
2023-05-17T07:33:04.020Z,46.60
2023-05-17T07:35:31.357Z,47.20
2023-05-17T07:38:00.802Z,47.60
2023-05-17T07:40:27.824Z,47.30
2023-05-17T07:42:54.838Z,47.90
2023-05-17T07:45:24.122Z,45.70
2023-05-17T07:47:51.344Z,46.70
2023-05-17T07:50:18.391Z,46.20
2023-05-17T07:52:45.357Z,46.60
2023-05-17T07:55:16.757Z,46.10
2023-05-17T07:57:47.518Z,46.60
2023-05-17T08:00:19.378Z,48.40
2023-05-17T08:02:48.896Z,50.00
2023-05-17T08:05:18.018Z,50.40
2023-05-17T08:07:47.301Z,51.40
2023-05-17T08:10:14.306Z,53.40
2023-05-17T08:12:43.439Z,54.20
2023-05-17T08:15:15.456Z,56.40
2023-05-17T08:17:47.225Z,55.30
2023-05-17T08:20:14.290Z,56.60
2023-05-17T08:22:41.489Z,56.70
2023-05-17T08:25:11.327Z,57.20
2023-05-17T08:27:38.314Z,58.50
2023-05-17T08:30:09.152Z,58.40
2023-05-17T08:32:38.749Z,59.00
2023-05-17T08:35:06.153Z,58.10
2023-05-17T08:37:33.555Z,57.90
2023-05-17T08:40:00.585Z,57.70
2023-05-17T08:42:27.611Z,58.00
2023-05-17T08:44:59.811Z,58.30
2023-05-17T08:47:30.026Z,59.40
2023-05-17T08:50:00.929Z,58.50
2023-05-17T08:52:31.361Z,57.80
2023-05-17T08:54:59.224Z,58.30
2023-05-17T08:57:28.462Z,58.50
2023-05-17T08:59:55.465Z,58.70
2023-05-17T09:02:25.404Z,59.00
2023-05-17T09:04:55.760Z,58.80
2023-05-17T09:07:27.464Z,59.20
2023-05-17T09:09:58.477Z,59.20
2023-05-17T09:12:31.329Z,56.10
2023-05-17T09:15:17.708Z,56.50
2023-05-17T09:17:59.750Z,58.20
2023-05-17T09:20:35.210Z,57.00
2023-05-17T09:23:05.402Z,56.50
2023-05-17T09:25:34.540Z,56.90
2023-05-17T09:28:04.652Z,57.60
2023-05-17T09:30:35.212Z,56.50
2023-05-17T09:33:09.207Z,57.90
2023-05-17T09:35:42.652Z,57.10
2023-05-17T09:38:16.197Z,57.40
2023-05-17T09:40:44.888Z,57.40
2023-05-17T09:43:17.184Z,57.40
2023-05-17T09:45:46.815Z,57.50
2023-05-17T09:48:18.123Z,57.80
2023-05-17T09:50:49.295Z,57.60
2023-05-17T09:53:41.849Z,56.50
2023-05-17T09:56:13.388Z,55.50
2023-05-17T09:58:42.525Z,55.80
2023-05-17T10:01:11.687Z,54.60
2023-05-17T10:03:39.220Z,55.50
2023-05-17T10:06:13.387Z,55.60
2023-05-17T10:08:53.445Z,55.50
2023-05-17T10:11:24.641Z,54.60
2023-05-17T10:13:55.631Z,54.10
2023-05-17T10:16:23.538Z,54.00
2023-05-17T10:18:52.807Z,53.90
2023-05-17T10:21:19.884Z,53.90
2023-05-17T10:23:50.000Z,54.10
2023-05-17T10:26:17.014Z,53.40
2023-05-17T10:28:43.972Z,53.10
2023-05-17T10:31:13.445Z,52.30
2023-05-17T10:33:46.802Z,51.60
2023-05-17T10:36:15.684Z,54.10
2023-05-17T10:38:43.278Z,53.00
2023-05-17T10:41:11.926Z,54.00
2023-05-17T10:43:38.892Z,53.60
2023-05-17T10:46:24.133Z,52.60
2023-05-17T10:48:54.198Z,52.50
2023-05-17T10:51:31.418Z,52.60
2023-05-17T10:54:06.841Z,51.40
2023-05-17T10:56:34.130Z,51.10
2023-05-17T10:59:24.276Z,51.80
2023-05-17T11:01:55.581Z,52.80
2023-05-17T11:04:35.067Z,52.80
2023-05-17T11:07:21.952Z,52.50
2023-05-17T11:09:56.317Z,51.40
2023-05-17T11:12:35.398Z,50.90
2023-05-17T11:15:10.861Z,51.40
2023-05-17T11:17:44.180Z,50.50
2023-05-17T11:20:35.900Z,51.40
2023-05-17T11:23:15.780Z,49.70
2023-05-17T11:25:44.899Z,51.60
2023-05-17T11:28:23.919Z,51.10
2023-05-17T11:30:54.140Z,50.90
2023-05-17T11:33:44.094Z,50.30
2023-05-17T11:36:23.422Z,49.80
2023-05-17T11:39:01.475Z,50.90
2023-05-17T11:41:37.551Z,51.20
2023-05-17T11:44:07.234Z,50.40
2023-05-17T11:46:36.529Z,50.30
2023-05-17T11:49:03.480Z,51.40
2023-05-17T11:51:35.161Z,51.10
2023-05-17T11:54:06.485Z,49.90
2023-05-17T11:59:11.714Z,48.40
2023-05-17T12:01:48.842Z,48.50
2023-05-17T12:04:25.060Z,46.90
2023-05-17T12:06:55.544Z,48.30
2023-05-17T12:09:29.836Z,47.70
2023-05-17T12:12:04.096Z,46.80
2023-05-17T12:14:33.265Z,48.50
2023-05-17T12:17:04.040Z,48.00
2023-05-17T12:19:36.208Z,48.60
2023-05-17T12:22:09.493Z,49.70
2023-05-17T12:24:44.961Z,50.90
2023-05-17T12:27:12.076Z,52.70
2023-05-17T12:29:39.456Z,50.30
2023-05-17T12:32:07.267Z,52.30
2023-05-17T12:34:34.250Z,51.80
2023-05-17T12:37:10.258Z,53.30
2023-05-17T12:39:39.973Z,52.90
2023-05-17T12:42:12.528Z,50.90
2023-05-17T12:44:39.577Z,51.70
2023-05-17T12:47:06.805Z,51.00
2023-05-17T12:49:40.254Z,51.10
2023-05-17T12:52:07.747Z,53.70
2023-05-17T12:54:39.036Z,50.40
2023-05-17T12:57:16.160Z,50.60
2023-05-17T12:59:52.751Z,49.50
2023-05-17T13:02:23.717Z,50.40
2023-05-17T13:04:50.919Z,50.70
2023-05-17T13:07:26.478Z,48.80
2023-05-17T13:09:55.961Z,49.70
2023-05-17T13:12:23.982Z,49.10
2023-05-17T13:14:52.157Z,48.70
2023-05-17T13:17:34.795Z,48.10
2023-05-17T13:20:09.561Z,49.40
2023-05-17T13:22:44.669Z,49.20
2023-05-17T13:25:15.781Z,48.00
2023-05-17T13:27:48.647Z,49.20
2023-05-17T13:30:16.584Z,50.10
2023-05-17T13:32:44.587Z,48.60
2023-05-17T13:35:13.804Z,48.10
2023-05-17T13:37:40.836Z,49.80
2023-05-17T13:40:13.012Z,47.70
2023-05-17T13:42:39.894Z,48.20
2023-05-17T13:45:11.710Z,49.40
2023-05-17T13:47:41.570Z,49.00
2023-05-17T13:50:10.009Z,48.70
2023-05-17T13:52:37.018Z,47.50
2023-05-17T13:55:04.374Z,49.30
2023-05-17T13:57:33.721Z,47.80
2023-05-17T14:00:00.727Z,49.20
2023-05-17T14:02:30.232Z,47.60
2023-05-17T14:04:57.472Z,50.50
2023-05-17T14:07:26.687Z,50.40
2023-05-17T14:09:56.115Z,50.70
2023-05-17T14:12:28.064Z,49.60
2023-05-17T14:14:57.723Z,51.10
2023-05-17T14:17:26.830Z,50.00
2023-05-17T14:19:56.970Z,50.00
2023-05-17T14:22:23.951Z,50.10
2023-05-17T14:24:55.523Z,51.00
2023-05-17T14:27:22.696Z,51.60
2023-05-17T14:29:51.815Z,50.90
2023-05-17T14:32:21.841Z,49.80
2023-05-17T14:34:53.320Z,50.70
2023-05-17T14:37:21.983Z,49.40
2023-05-17T14:40:05.265Z,50.50
2023-05-17T14:42:35.729Z,50.10
2023-05-17T14:45:05.048Z,49.70
2023-05-17T14:47:37.124Z,50.50
2023-05-17T14:50:04.624Z,52.40
2023-05-17T14:52:34.887Z,51.50
2023-05-17T14:55:02.073Z,53.50
2023-05-17T14:57:29.025Z,53.40
2023-05-17T14:59:59.756Z,54.40
2023-05-17T15:02:29.254Z,54.40
2023-05-17T15:04:56.526Z,55.90
2023-05-17T15:07:23.676Z,58.20
2023-05-17T15:09:50.647Z,59.10
2023-05-17T15:12:17.643Z,60.20
2023-05-17T15:14:49.632Z,60.50
2023-05-17T15:17:18.707Z,61.00
2023-05-17T15:19:45.902Z,61.50
2023-05-17T15:22:15.228Z,61.90
2023-05-17T15:24:42.193Z,62.10
2023-05-17T15:27:12.679Z,62.70
2023-05-17T15:29:44.447Z,62.00
2023-05-17T15:32:11.616Z,61.60
2023-05-17T15:34:46.106Z,62.20
2023-05-17T15:37:15.673Z,61.40
2023-05-17T15:39:42.661Z,60.80
2023-05-17T15:42:09.684Z,60.70
2023-05-17T15:44:38.832Z,61.80
2023-05-17T15:47:05.925Z,62.30
2023-05-17T15:49:37.499Z,62.70
2023-05-17T15:52:04.795Z,61.40
2023-05-17T15:54:31.772Z,62.20
2023-05-17T15:57:01.523Z,61.80
2023-05-17T15:59:28.548Z,61.60
2023-05-17T16:01:57.771Z,59.80
2023-05-17T16:04:29.346Z,59.70
2023-05-17T16:06:58.450Z,60.60
2023-05-17T16:09:28.045Z,60.90
2023-05-17T16:11:59.431Z,61.90
2023-05-17T16:14:26.616Z,61.60
2023-05-17T16:16:56.001Z,62.10
2023-05-17T16:19:27.625Z,62.00
2023-05-17T16:21:57.981Z,62.10
2023-05-17T16:24:29.416Z,62.40
2023-05-17T16:26:59.186Z,62.10
2023-05-17T16:29:26.153Z,62.50
2023-05-17T16:31:53.640Z,63.10
2023-05-17T16:34:20.806Z,63.60
2023-05-17T16:36:51.038Z,62.50
2023-05-17T16:39:20.088Z,62.70
2023-05-17T16:41:52.646Z,63.10
2023-05-17T16:44:19.607Z,62.80
2023-05-17T16:46:53.309Z,62.70
2023-05-17T16:49:20.497Z,63.10
2023-05-17T16:51:51.932Z,63.40
2023-05-17T16:54:23.648Z,65.00
2023-05-17T16:56:50.603Z,63.20
2023-05-17T16:59:20.004Z,62.40
2023-05-17T17:01:49.386Z,62.60
2023-05-17T17:04:17.118Z,63.70
2023-05-17T17:06:48.699Z,62.90
2023-05-17T17:09:19.010Z,63.40
2023-05-17T17:11:46.354Z,63.30
2023-05-17T17:14:13.447Z,63.50
2023-05-17T17:16:43.121Z,63.50
2023-05-17T17:19:12.725Z,62.80
2023-05-17T17:21:46.993Z,62.80
2023-05-17T17:24:13.973Z,63.50
2023-05-17T17:26:41.063Z,63.10
2023-05-17T17:29:10.694Z,64.00
2023-05-17T17:31:39.860Z,64.30
2023-05-17T17:34:11.904Z,64.00
2023-05-17T17:36:44.163Z,64.40
2023-05-17T17:39:14.587Z,64.90
2023-05-17T17:41:41.574Z,64.00
2023-05-17T17:44:08.580Z,64.80
2023-05-17T17:46:35.676Z,65.40
2023-05-17T17:49:03.479Z,65.70
2023-05-17T17:51:32.918Z,65.80
2023-05-17T17:54:00.058Z,65.60
2023-05-17T17:56:27.089Z,65.90
2023-05-17T17:58:56.524Z,66.40
2023-05-17T18:01:29.591Z,66.60
2023-05-17T18:04:01.342Z,66.60
2023-05-17T18:06:30.946Z,66.90
2023-05-17T18:09:00.035Z,67.40
2023-05-17T18:11:29.462Z,67.50
2023-05-17T18:13:56.741Z,67.70
2023-05-17T18:16:28.321Z,67.90
2023-05-17T18:18:57.935Z,68.40
2023-05-17T18:21:25.070Z,68.90
2023-05-17T18:23:52.069Z,69.00
2023-05-17T18:26:23.755Z,69.00
2023-05-17T18:28:56.288Z,68.60
2023-05-17T18:31:26.251Z,69.90
2023-05-17T18:33:57.138Z,68.70
2023-05-17T18:36:24.353Z,69.00
2023-05-17T18:38:54.375Z,69.40
2023-05-17T18:41:24.098Z,69.30
2023-05-17T18:44:01.515Z,69.60
2023-05-17T18:46:31.763Z,70.10
2023-05-17T18:48:58.809Z,70.20
2023-05-17T18:51:25.874Z,70.10
2023-05-17T18:53:55.174Z,70.80
2023-05-17T18:56:25.001Z,70.80
2023-05-17T18:58:54.533Z,70.70
2023-05-17T19:01:21.615Z,70.80
2023-05-17T19:03:56.966Z,70.70
2023-05-17T19:06:29.357Z,70.60
2023-05-17T19:09:01.241Z,71.00
2023-05-17T19:11:33.016Z,71.00
2023-05-17T19:14:02.197Z,71.10
2023-05-17T19:16:29.215Z,71.00
2023-05-17T19:18:56.266Z,70.90
2023-05-17T19:21:23.344Z,70.70
2023-05-17T19:23:52.879Z,71.00
2023-05-17T19:26:24.661Z,70.70
2023-05-17T19:28:54.168Z,70.80
2023-05-17T19:31:21.305Z,71.10
2023-05-17T19:33:48.282Z,70.50
2023-05-17T19:36:17.706Z,70.30
2023-05-17T19:38:50.553Z,70.70
2023-05-17T19:41:19.108Z,70.40
2023-05-17T19:43:49.377Z,70.60
2023-05-17T19:46:16.481Z,70.90
2023-05-17T19:48:46.774Z,71.40
2023-05-17T19:51:16.327Z,71.40
2023-05-17T19:53:52.327Z,70.80
2023-05-17T19:56:22.785Z,71.40
2023-05-17T19:58:52.501Z,72.10
2023-05-17T20:01:21.512Z,71.90
2023-05-17T20:03:53.351Z,72.00
2023-05-17T20:06:22.724Z,72.00
2023-05-17T20:08:52.106Z,72.90
2023-05-17T20:11:19.177Z,72.50
2023-05-17T20:13:48.421Z,72.90
2023-05-17T20:16:17.770Z,72.40
2023-05-17T20:18:47.404Z,72.40
2023-05-17T20:21:18.230Z,72.60
2023-05-17T20:23:47.700Z,72.60
2023-05-17T20:26:19.135Z,72.30
2023-05-17T20:28:46.313Z,72.90
2023-05-17T20:31:18.101Z,72.80
2023-05-17T20:33:47.570Z,73.20
2023-05-17T20:36:14.873Z,73.60
2023-05-17T20:38:42.654Z,73.80
2023-05-17T20:41:14.807Z,73.80
2023-05-17T20:43:46.886Z,74.30
2023-05-17T20:46:19.349Z,74.00
2023-05-17T20:48:51.143Z,74.10
2023-05-17T20:51:22.405Z,74.40
2023-05-17T20:53:51.604Z,75.00
2023-05-17T20:56:21.033Z,75.20
2023-05-17T20:58:48.758Z,75.10
2023-05-17T21:01:19.361Z,75.70
2023-05-17T21:03:51.305Z,75.40
2023-05-17T21:06:23.880Z,75.70
2023-05-17T21:08:53.487Z,75.80
2023-05-17T21:11:28.859Z,76.30
2023-05-17T21:14:00.660Z,76.00
2023-05-17T21:16:27.736Z,75.50
2023-05-17T21:18:54.856Z,75.20
2023-05-17T21:21:21.928Z,74.80
2023-05-17T21:23:48.983Z,74.10
2023-05-17T21:26:16.014Z,73.20
2023-05-17T21:28:47.732Z,72.60
2023-05-17T21:31:15.628Z,72.40
2023-05-17T21:33:44.914Z,72.70
2023-05-17T21:36:11.902Z,72.50
2023-05-17T21:38:38.892Z,72.50
2023-05-17T21:41:08.098Z,72.60
2023-05-17T21:43:40.015Z,72.90
2023-05-17T21:46:09.410Z,73.00
2023-05-17T21:48:38.918Z,73.10
2023-05-17T21:51:11.053Z,73.20
2023-05-17T21:53:38.081Z,73.00
2023-05-17T21:56:07.481Z,72.90
2023-05-17T21:58:34.473Z,72.90
2023-05-17T22:01:04.370Z,72.70
2023-05-17T22:03:31.509Z,72.00
2023-05-17T22:06:03.602Z,71.40
2023-05-17T22:08:33.090Z,72.20
2023-05-17T22:11:02.517Z,72.00
2023-05-17T22:13:32.668Z,72.10
2023-05-17T22:15:59.824Z,72.20
2023-05-17T22:18:27.121Z,72.60
2023-05-17T22:20:59.501Z,72.00
2023-05-17T22:23:31.230Z,72.70
2023-05-17T22:26:00.430Z,73.20
2023-05-17T22:28:27.897Z,72.90
2023-05-17T22:30:57.146Z,72.30
2023-05-17T22:33:29.691Z,72.30
2023-05-17T22:35:56.936Z,72.50
2023-05-17T22:38:23.925Z,71.40
2023-05-17T22:40:51.131Z,72.40
2023-05-17T22:43:18.140Z,72.40
2023-05-17T22:45:49.955Z,71.90
2023-05-17T22:48:26.626Z,72.00
2023-05-17T22:50:55.822Z,71.60
2023-05-17T22:53:25.418Z,71.50
2023-05-17T22:55:54.522Z,71.20
2023-05-17T22:58:23.361Z,71.00
2023-05-17T23:00:55.822Z,70.50
2023-05-17T23:03:25.111Z,70.40
2023-05-17T23:06:02.957Z,70.50
2023-05-17T23:08:35.008Z,70.20
2023-05-17T23:11:08.919Z,70.30
2023-05-17T23:13:36.461Z,70.00
2023-05-17T23:16:07.948Z,69.10
2023-05-17T23:18:38.231Z,69.40
2023-05-17T23:21:09.932Z,70.00
2023-05-17T23:23:38.157Z,70.20
2023-05-17T23:26:10.218Z,69.10
2023-05-17T23:28:37.884Z,69.60
2023-05-17T23:31:08.502Z,69.60
2023-05-17T23:33:42.732Z,69.80
2023-05-17T23:36:09.786Z,70.00
2023-05-17T23:38:38.966Z,70.30
2023-05-17T23:41:11.558Z,70.20
2023-05-17T23:43:40.920Z,69.60
2023-05-17T23:46:10.450Z,70.40
2023-05-17T23:48:39.938Z,69.70
2023-05-17T23:51:09.276Z,69.60
2023-05-17T23:53:38.376Z,70.50
2023-05-17T23:56:05.645Z,70.70
2023-05-17T23:58:35.080Z,70.20
